Time;durP1;ratioP1;P1;durP2;ratioP2;P2;SDS_P1;SDS_P2;PMS_P1;PMS_P2;Temp;Humidity;BMP_temperature;BMP_pressure;BME280_temperature;BME280_humidity;BME280_pressure;Samples;Min_cycle;Max_cycle;Signal;HPM_P1;HPM_P2
2023/04/22 00:00:12;;;;;;;3.50;2.00;;;8.00;99.90;;;;;;5039521;28;20254;-46
2023/04/22 00:02:39;;;;;;;5.00;2.80;;;8.00;99.90;;;;;;5036496;28;20213;-46
2023/04/22 00:05:07;;;;;;;5.17;3.03;;;7.90;99.90;;;;;;5036421;28;20167;-47
2023/04/22 00:07:33;;;;;;;3.17;2.60;;;8.00;99.90;;;;;;5036322;28;20283;-48
2023/04/22 00:09:58;;;;;;;4.47;2.73;;;7.90;99.90;;;;;;5036548;28;20264;-47
2023/04/22 00:12:24;;;;;;;3.63;2.60;;;8.00;99.90;;;;;;5036121;28;20238;-45
2023/04/22 00:14:50;;;;;;;5.30;2.97;;;8.00;99.90;;;;;;5035827;28;20618;-47
2023/04/22 00:17:16;;;;;;;5.67;3.00;;;8.00;99.90;;;;;;5036095;28;20212;-48
2023/04/22 00:19:41;;;;;;;7.47;2.97;;;8.00;99.90;;;;;;5035640;28;20207;-48
2023/04/22 00:22:07;;;;;;;5.17;3.00;;;8.00;99.90;;;;;;5035561;28;20604;-46
2023/04/22 00:24:32;;;;;;;4.67;3.40;;;8.00;99.90;;;;;;5035593;28;20186;-47
2023/04/22 00:26:58;;;;;;;5.73;3.50;;;8.00;99.90;;;;;;5035890;28;20184;-48
2023/04/22 00:29:26;;;;;;;6.10;3.50;;;8.00;99.90;;;;;;5035557;28;20185;-48
2023/04/22 00:31:52;;;;;;;7.03;4.70;;;8.00;99.90;;;;;;5035411;28;20208;-48
2023/04/22 00:34:18;;;;;;;8.23;4.30;;;8.00;99.90;;;;;;5035373;28;20261;-48
2023/04/22 00:36:44;;;;;;;4.00;3.60;;;8.10;99.90;;;;;;5035484;28;20684;-49
2023/04/22 00:39:11;;;;;;;5.20;4.07;;;8.10;99.90;;;;;;5035784;28;20213;-46
2023/04/22 00:41:38;;;;;;;7.40;4.83;;;8.10;99.90;;;;;;5035595;28;20533;-48
2023/04/22 00:44:04;;;;;;;5.00;4.33;;;8.10;99.90;;;;;;5035334;28;20171;-46
2023/04/22 00:46:32;;;;;;;6.50;4.10;;;8.10;99.90;;;;;;5035553;28;20205;-46
2023/04/22 00:48:58;;;;;;;9.30;3.83;;;8.10;99.90;;;;;;5035150;28;20627;-46
2023/04/22 00:51:24;;;;;;;5.27;3.80;;;8.10;99.90;;;;;;5035495;28;20186;-47
2023/04/22 00:53:50;;;;;;;5.33;3.87;;;8.10;99.90;;;;;;5035465;28;20170;-45
2023/04/22 00:56:16;;;;;;;4.03;3.40;;;8.10;99.90;;;;;;5035066;28;20251;-45
2023/04/22 00:58:42;;;;;;;3.97;3.37;;;8.10;99.90;;;;;;5035081;28;20719;-45
2023/04/22 01:01:08;;;;;;;5.27;3.43;;;8.10;99.90;;;;;;5035062;28;20199;-47
2023/04/22 01:03:37;;;;;;;4.83;3.30;;;8.10;99.90;;;;;;5034948;28;20264;-49
2023/04/22 01:06:03;;;;;;;5.53;3.30;;;8.10;99.90;;;;;;5035204;28;20188;-48
2023/04/22 01:08:29;;;;;;;6.33;3.40;;;8.10;99.90;;;;;;5035107;28;20231;-49
2023/04/22 01:10:56;;;;;;;4.87;3.33;;;8.10;99.90;;;;;;5035213;28;20519;-49
2023/04/22 01:13:23;;;;;;;4.33;3.37;;;8.10;99.90;;;;;;5034527;28;20332;-50
2023/04/22 01:15:49;;;;;;;5.30;3.30;;;8.00;99.90;;;;;;5035167;28;20213;-49
2023/04/22 01:18:15;;;;;;;3.97;3.03;;;8.10;99.90;;;;;;5034921;28;20188;-49
2023/04/22 01:20:41;;;;;;;5.50;3.87;;;8.00;99.90;;;;;;5016946;28;20320;-51
2023/04/22 01:23:20;;;;;;;4.50;3.40;;;8.10;99.90;;;;;;5016821;28;20214;-49
2023/04/22 01:25:47;;;;;;;4.20;3.20;;;8.00;99.90;;;;;;5034800;28;20166;-50
2023/04/22 01:28:13;;;;;;;7.20;3.80;;;8.10;99.90;;;;;;5034530;28;20182;-51
2023/04/22 01:30:39;;;;;;;4.60;3.63;;;8.10;99.90;;;;;;5034774;28;20264;-51
2023/04/22 01:33:05;;;;;;;5.40;3.23;;;8.10;99.90;;;;;;5035517;28;20207;-51
2023/04/22 01:35:35;;;;;;;7.17;3.20;;;8.10;99.90;;;;;;5034607;28;20548;-49
2023/04/22 01:38:06;;;;;;;5.43;3.60;;;8.10;99.90;;;;;;5035111;28;20198;-51
2023/04/22 01:40:32;;;;;;;5.30;3.30;;;8.10;99.90;;;;;;5034579;28;20172;-51
2023/04/22 01:42:59;;;;;;;5.83;3.57;;;8.10;99.90;;;;;;5034130;28;20221;-51
2023/04/22 01:45:25;;;;;;;3.90;3.20;;;8.10;99.90;;;;;;5034248;28;20608;-50
2023/04/22 01:47:51;;;;;;;4.67;3.07;;;8.20;99.90;;;;;;5034251;28;20235;-50
2023/04/22 01:50:17;;;;;;;5.13;3.30;;;8.20;99.90;;;;;;5034418;28;20559;-50
2023/04/22 01:52:43;;;;;;;7.47;3.93;;;8.30;99.90;;;;;;5034063;28;20197;-50
2023/04/22 01:55:09;;;;;;;8.73;3.60;;;8.30;99.90;;;;;;5034029;28;20173;-50
2023/04/22 01:57:34;;;;;;;6.83;4.77;;;8.40;99.90;;;;;;5034168;28;20205;-50
2023/04/22 02:00:00;;;;;;;6.73;4.47;;;8.40;99.90;;;;;;5033914;28;20175;-50
2023/04/22 02:02:26;;;;;;;4.83;4.03;;;8.40;99.90;;;;;;5033854;28;20198;-50
2023/04/22 02:04:52;;;;;;;5.27;4.47;;;8.50;99.90;;;;;;5033889;28;20177;-51
2023/04/22 02:07:18;;;;;;;6.37;4.30;;;8.60;99.90;;;;;;5034390;28;20178;-50
2023/04/22 02:09:43;;;;;;;8.50;5.40;;;8.60;99.90;;;;;;5034247;28;20665;-50
2023/04/22 02:12:09;;;;;;;7.50;5.13;;;8.60;99.90;;;;;;5033689;28;20198;-51
2023/04/22 02:14:34;;;;;;;6.57;5.17;;;8.60;99.90;;;;;;5033987;28;20186;-51
2023/04/22 02:17:01;;;;;;;7.47;5.77;;;8.60;99.90;;;;;;5033595;28;20195;-52
2023/04/22 02:19:27;;;;;;;7.37;5.67;;;8.60;99.90;;;;;;5033672;28;20173;-51
2023/04/22 02:21:53;;;;;;;9.90;6.43;;;8.60;99.90;;;;;;5033763;28;20203;-50
2023/04/22 02:24:18;;;;;;;10.73;7.10;;;8.60;99.90;;;;;;5033808;28;20185;-52
2023/04/22 02:26:44;;;;;;;9.20;6.00;;;8.60;99.90;;;;;;5033048;28;20184;-50
2023/04/22 02:29:10;;;;;;;9.07;6.40;;;8.70;99.90;;;;;;5033419;28;20189;-49
2023/04/22 02:31:36;;;;;;;9.43;5.90;;;8.70;99.90;;;;;;5033954;28;20296;-50
2023/04/22 02:34:02;;;;;;;9.13;6.33;;;8.70;99.90;;;;;;5033950;28;20656;-51
2023/04/22 02:36:27;;;;;;;8.50;6.00;;;8.70;99.90;;;;;;5033393;28;20208;-50
2023/04/22 02:38:53;;;;;;;11.03;6.43;;;8.70;99.90;;;;;;5033738;28;20203;-46
2023/04/22 02:41:19;;;;;;;8.73;5.90;;;8.70;99.90;;;;;;5033326;28;20254;-47
2023/04/22 02:43:45;;;;;;;11.20;6.57;;;8.70;99.90;;;;;;5033271;28;20234;-47
2023/04/22 02:46:12;;;;;;;10.27;6.20;;;8.70;99.90;;;;;;5033344;28;20187;-48
2023/04/22 02:48:38;;;;;;;7.23;6.33;;;8.70;99.90;;;;;;5033348;28;20200;-47
2023/04/22 02:51:05;;;;;;;8.53;6.80;;;8.70;99.90;;;;;;5033374;28;20189;-47
2023/04/22 02:53:30;;;;;;;10.47;6.83;;;8.70;99.90;;;;;;5033744;28;20212;-47
2023/04/22 02:55:57;;;;;;;8.53;7.00;;;8.70;99.90;;;;;;5033414;28;20193;-46
2023/04/22 02:58:23;;;;;;;9.97;6.97;;;8.70;99.90;;;;;;5033754;28;20677;-47
2023/04/22 03:00:48;;;;;;;12.27;7.90;;;8.60;99.90;;;;;;5033306;28;20169;-46
2023/04/22 03:03:14;;;;;;;9.93;7.07;;;8.60;99.90;;;;;;5033267;28;20201;-47
2023/04/22 03:05:39;;;;;;;9.27;7.37;;;8.60;99.90;;;;;;5033096;28;20179;-45
2023/04/22 03:08:05;;;;;;;10.00;7.40;;;8.60;99.90;;;;;;5033066;28;20179;-46
2023/04/22 03:10:31;;;;;;;10.30;7.17;;;8.60;99.90;;;;;;5033104;28;20186;-45
2023/04/22 03:12:57;;;;;;;10.33;7.07;;;8.60;99.90;;;;;;5033227;28;20205;-45
2023/04/22 03:15:22;;;;;;;9.50;7.50;;;8.50;99.90;;;;;;5033359;28;20534;-45
2023/04/22 03:17:48;;;;;;;11.30;6.73;;;8.50;99.90;;;;;;5033509;28;20274;-46
2023/04/22 03:20:14;;;;;;;9.07;7.20;;;8.50;99.90;;;;;;5033163;28;20253;-46
2023/04/22 03:22:40;;;;;;;10.33;7.27;;;8.50;99.90;;;;;;5032912;28;20568;-46
2023/04/22 03:25:06;;;;;;;10.17;7.40;;;8.50;99.90;;;;;;5033181;28;20180;-45
2023/04/22 03:27:32;;;;;;;10.60;7.30;;;8.50;99.90;;;;;;5033372;28;20567;-46
2023/04/22 03:29:58;;;;;;;10.00;7.70;;;8.50;99.90;;;;;;5033147;28;20527;-46
2023/04/22 03:32:23;;;;;;;10.93;8.10;;;8.50;99.90;;;;;;5033077;28;20255;-45
2023/04/22 03:34:49;;;;;;;15.40;7.87;;;8.50;99.90;;;;;;5032846;28;20227;-45
2023/04/22 03:37:15;;;;;;;8.77;7.43;;;8.50;99.90;;;;;;5033371;28;20207;-45
2023/04/22 03:39:40;;;;;;;10.57;7.23;;;8.50;99.90;;;;;;5018878;28;20257;-47
2023/04/22 03:42:06;;;;;;;11.10;8.03;;;8.50;99.90;;;;;;5036454;28;20204;-47
2023/04/22 03:44:32;;;;;;;9.60;7.63;;;8.50;99.90;;;;;;5036495;28;20579;-47
2023/04/22 03:46:57;;;;;;;9.07;7.13;;;8.50;99.90;;;;;;5036397;28;20185;-46
2023/04/22 03:49:23;;;;;;;10.00;7.23;;;8.50;99.90;;;;;;5036250;28;20280;-46
2023/04/22 03:51:48;;;;;;;8.83;6.63;;;8.50;99.90;;;;;;5036256;28;20231;-47
2023/04/22 03:54:14;;;;;;;10.77;6.47;;;8.60;99.90;;;;;;5036399;28;20247;-44
2023/04/22 03:56:40;;;;;;;11.77;7.07;;;8.60;99.90;;;;;;5036178;28;20210;-46
2023/04/22 03:59:06;;;;;;;10.60;6.87;;;8.60;99.90;;;;;;5036238;28;20180;-46
2023/04/22 04:01:31;;;;;;;8.37;6.50;;;8.60;99.90;;;;;;5036370;28;20253;-46
2023/04/22 04:03:57;;;;;;;8.87;6.50;;;8.60;99.90;;;;;;5036122;28;20527;-48
2023/04/22 04:06:22;;;;;;;7.77;6.07;;;8.60;99.90;;;;;;5036325;28;20533;-46
2023/04/22 04:08:48;;;;;;;9.17;6.90;;;8.60;99.90;;;;;;5036338;28;20186;-44
2023/04/22 04:11:13;;;;;;;8.23;6.00;;;8.70;99.90;;;;;;5035887;28;20178;-47
2023/04/22 04:13:39;;;;;;;8.30;5.77;;;8.70;99.90;;;;;;5035932;28;20173;-46
2023/04/22 04:16:05;;;;;;;9.50;6.17;;;8.70;99.90;;;;;;5035861;28;20180;-46
2023/04/22 04:18:31;;;;;;;7.23;5.57;;;8.70;99.90;;;;;;5036128;28;20572;-47
2023/04/22 04:20:57;;;;;;;10.20;6.13;;;8.70;99.90;;;;;;5018111;28;20286;-47
2023/04/22 04:23:22;;;;;;;7.50;6.13;;;8.70;99.90;;;;;;5035738;28;20193;-46
2023/04/22 04:25:48;;;;;;;8.80;6.80;;;8.80;99.90;;;;;;5035795;28;20185;-48
2023/04/22 04:28:16;;;;;;;8.40;6.07;;;8.80;99.90;;;;;;5035991;28;20176;-45
2023/04/22 04:30:42;;;;;;;8.70;6.23;;;8.80;99.90;;;;;;5035657;28;20200;-47
2023/04/22 04:33:08;;;;;;;7.50;5.57;;;8.80;99.90;;;;;;5035572;28;20220;-46
2023/04/22 04:35:36;;;;;;;12.23;5.03;;;8.80;99.90;;;;;;5017860;28;20177;-46
2023/04/22 04:38:03;;;;;;;7.87;5.57;;;8.80;99.90;;;;;;5035403;28;20284;-47
2023/04/22 04:40:29;;;;;;;5.77;4.70;;;8.80;99.90;;;;;;5035486;28;20179;-45
2023/04/22 04:42:56;;;;;;;10.37;4.27;;;8.90;99.90;;;;;;5035658;28;20200;-48
2023/04/22 04:45:22;;;;;;;6.23;4.73;;;8.90;99.90;;;;;;5035592;28;20193;-47
2023/04/22 04:47:51;;;;;;;7.57;5.07;;;8.90;99.90;;;;;;5034736;28;20653;-46
2023/04/22 04:50:18;;;;;;;4.93;3.97;;;9.00;99.90;;;;;;5035281;28;20171;-47
2023/04/22 04:52:45;;;;;;;5.00;4.47;;;9.00;99.90;;;;;;5035142;28;20209;-47
2023/04/22 04:55:11;;;;;;;5.50;4.13;;;9.00;99.90;;;;;;5035492;28;20201;-47
2023/04/22 04:57:36;;;;;;;7.87;4.77;;;9.00;99.90;;;;;;5035028;28;20687;-47
2023/04/22 05:00:02;;;;;;;8.67;5.17;;;9.10;99.90;;;;;;5035149;28;20180;-48
2023/04/22 05:02:28;;;;;;;6.53;4.50;;;9.10;99.90;;;;;;5035055;28;20199;-46
2023/04/22 05:04:53;;;;;;;6.50;4.67;;;9.10;99.90;;;;;;5035021;28;20174;-47
2023/04/22 05:07:19;;;;;;;6.00;4.27;;;9.20;99.90;;;;;;5035238;28;20181;-46
2023/04/22 05:09:45;;;;;;;6.57;4.80;;;9.20;99.90;;;;;;5034993;28;20261;-48
2023/04/22 05:12:10;;;;;;;4.53;3.30;;;9.20;99.90;;;;;;5035074;28;20728;-47
2023/04/22 05:14:36;;;;;;;9.23;3.87;;;9.30;99.90;;;;;;5034850;28;20193;-46
2023/04/22 05:17:02;;;;;;;4.30;3.90;;;9.30;99.90;;;;;;5035029;28;20210;-46
2023/04/22 05:19:27;;;;;;;4.60;3.83;;;9.40;99.90;;;;;;5034978;28;20190;-46
2023/04/22 05:21:53;;;;;;;5.10;3.93;;;9.40;99.90;;;;;;5034960;28;20198;-47
2023/04/22 05:24:18;;;;;;;6.53;4.37;;;9.50;99.90;;;;;;5034612;28;20189;-44
2023/04/22 05:26:44;;;;;;;5.00;3.87;;;9.50;99.90;;;;;;5035167;28;20175;-45
2023/04/22 05:29:10;;;;;;;7.63;4.53;;;9.60;99.90;;;;;;5034548;28;20187;-46
2023/04/22 05:31:35;;;;;;;4.70;3.80;;;9.60;99.90;;;;;;5034463;28;20196;-45
2023/04/22 05:34:01;;;;;;;5.80;4.20;;;9.70;99.90;;;;;;5034416;28;20187;-46
2023/04/22 05:36:26;;;;;;;6.50;3.97;;;9.80;99.90;;;;;;5034351;28;20216;-47
2023/04/22 05:38:52;;;;;;;6.87;4.47;;;9.80;99.90;;;;;;5034616;28;20306;-47
2023/04/22 05:41:17;;;;;;;7.80;4.40;;;9.90;99.90;;;;;;5034478;28;20173;-46
2023/04/22 05:43:43;;;;;;;7.10;4.63;;;10.00;99.90;;;;;;5034287;28;20186;-46
2023/04/22 05:46:09;;;;;;;5.40;4.47;;;10.00;99.90;;;;;;5034194;28;20188;-46
2023/04/22 05:48:34;;;;;;;5.73;4.00;;;10.00;99.90;;;;;;5034169;28;20206;-46
2023/04/22 05:51:00;;;;;;;5.57;3.80;;;10.10;99.90;;;;;;5034291;28;20221;-47
2023/04/22 05:53:26;;;;;;;6.47;4.30;;;10.10;99.90;;;;;;5034065;28;20199;-47
2023/04/22 05:55:52;;;;;;;5.53;4.03;;;10.20;99.90;;;;;;5033969;28;20260;-46
2023/04/22 05:58:18;;;;;;;7.07;4.03;;;10.30;99.90;;;;;;5034205;28;20183;-46
2023/04/22 06:00:43;;;;;;;5.20;4.20;;;10.40;99.90;;;;;;5033150;28;20582;-47
2023/04/22 06:03:09;;;;;;;5.43;4.40;;;10.40;99.90;;;;;;5033834;28;20193;-46
2023/04/22 06:05:35;;;;;;;6.70;4.17;;;10.50;99.90;;;;;;5033910;28;20666;-46
2023/04/22 06:08:00;;;;;;;4.97;4.00;;;10.60;99.90;;;;;;5034089;28;20537;-46
2023/04/22 06:10:26;;;;;;;5.90;4.80;;;10.70;99.90;;;;;;5033810;28;20186;-47
2023/04/22 06:12:52;;;;;;;8.40;4.27;;;10.80;99.90;;;;;;5033763;28;20200;-46
2023/04/22 06:15:17;;;;;;;4.17;3.73;;;10.90;99.90;;;;;;5033981;28;20258;-45
2023/04/22 06:17:44;;;;;;;6.00;4.50;;;10.90;99.90;;;;;;5015912;28;20584;-45
2023/04/22 06:20:10;;;;;;;8.70;4.43;;;11.00;99.90;;;;;;5033900;28;20544;-47
2023/04/22 06:22:36;;;;;;;5.40;4.30;;;11.10;99.90;;;;;;5033678;28;20618;-48
2023/04/22 06:25:02;;;;;;;5.40;4.50;;;11.30;99.90;;;;;;5033884;28;20234;-47
2023/04/22 06:27:27;;;;;;;4.97;4.43;;;11.50;99.90;;;;;;5033553;28;20216;-45
2023/04/22 06:29:53;;;;;;;4.33;3.27;;;11.70;99.90;;;;;;5033816;28;20263;-47
2023/04/22 06:32:18;;;;;;;4.60;3.70;;;11.80;99.90;;;;;;5033655;28;20279;-47
2023/04/22 06:34:44;;;;;;;4.17;3.77;;;12.00;99.90;;;;;;5033675;28;20177;-46
2023/04/22 06:37:09;;;;;;;6.07;4.27;;;12.20;99.90;;;;;;5033322;28;20204;-47
2023/04/22 06:39:35;;;;;;;5.07;3.83;;;12.30;99.90;;;;;;5033546;28;20240;-46
2023/04/22 06:42:01;;;;;;;4.80;4.00;;;12.50;99.90;;;;;;5033498;28;20564;-46
2023/04/22 06:44:27;;;;;;;5.10;4.00;;;12.60;99.90;;;;;;5033665;28;20184;-46
2023/04/22 06:46:53;;;;;;;5.00;3.80;;;12.60;99.90;;;;;;5033395;28;20518;-48
2023/04/22 06:49:18;;;;;;;5.63;3.90;;;12.70;99.90;;;;;;5033404;28;20212;-47
2023/04/22 06:51:44;;;;;;;5.90;3.93;;;12.80;99.90;;;;;;5033656;28;20613;-47
2023/04/22 06:54:10;;;;;;;6.60;4.30;;;12.90;99.90;;;;;;5033606;28;20188;-47
2023/04/22 06:56:35;;;;;;;4.37;3.47;;;13.00;99.90;;;;;;5015807;28;20207;-48
2023/04/22 06:59:01;;;;;;;4.23;3.83;;;13.20;99.90;;;;;;5033798;28;20173;-48
2023/04/22 07:01:27;;;;;;;5.33;4.13;;;13.40;99.90;;;;;;5033093;28;20216;-47
2023/04/22 07:03:52;;;;;;;5.57;4.30;;;13.70;99.90;;;;;;5033458;28;20251;-47
2023/04/22 07:06:18;;;;;;;5.70;4.07;;;13.90;99.90;;;;;;5033094;28;20173;-48
2023/04/22 07:08:44;;;;;;;5.07;3.83;;;14.20;99.90;;;;;;5015715;28;20200;-48
2023/04/22 07:11:09;;;;;;;4.47;3.90;;;14.30;99.90;;;;;;5033722;28;20209;-48
2023/04/22 07:13:35;;;;;;;4.53;3.97;;;14.50;99.90;;;;;;5036953;28;20208;-46
2023/04/22 07:16:01;;;;;;;4.07;3.10;;;14.60;99.90;;;;;;5019232;28;20703;-48
2023/04/22 07:18:27;;;;;;;5.43;3.80;;;14.70;99.90;;;;;;5037072;28;20333;-48
2023/04/22 07:20:53;;;;;;;4.33;3.70;;;14.80;99.90;;;;;;5036996;28;20524;-48
2023/04/22 07:23:18;;;;;;;3.77;3.30;;;15.00;99.90;;;;;;5037168;28;20259;-47
2023/04/22 07:25:44;;;;;;;4.40;3.27;;;15.10;99.90;;;;;;5036923;28;20176;-49
2023/04/22 07:28:10;;;;;;;6.97;3.30;;;15.30;99.90;;;;;;5037069;28;20264;-48
2023/04/22 07:30:35;;;;;;;3.87;3.30;;;15.40;99.90;;;;;;5037052;28;20180;-49
2023/04/22 07:33:01;;;;;;;5.03;3.50;;;15.50;99.90;;;;;;5036819;28;20214;-48
2023/04/22 07:35:27;;;;;;;3.43;3.10;;;15.60;99.90;;;;;;5036772;28;20615;-49
2023/04/22 07:37:53;;;;;;;5.33;3.03;;;15.70;99.90;;;;;;5036744;28;20223;-49
2023/04/22 07:40:19;;;;;;;6.70;2.87;;;15.70;99.90;;;;;;5036725;28;20541;-49
2023/04/22 07:42:45;;;;;;;3.87;2.80;;;15.80;99.90;;;;;;5036591;28;20197;-47
2023/04/22 07:45:11;;;;;;;3.97;3.10;;;15.80;99.90;;;;;;5036591;28;20181;-48
2023/04/22 07:47:37;;;;;;;5.60;3.17;;;15.90;99.90;;;;;;5036534;28;20189;-47
2023/04/22 07:50:03;;;;;;;3.40;2.83;;;16.00;99.90;;;;;;5037363;28;20173;-46
2023/04/22 07:52:29;;;;;;;6.77;3.10;;;16.10;99.90;;;;;;5037259;28;20203;-46
2023/04/22 07:54:55;;;;;;;2.90;2.60;;;16.20;99.90;;;;;;5036540;28;20267;-47
2023/04/22 07:57:21;;;;;;;3.30;3.00;;;16.30;99.90;;;;;;5037020;28;20335;-47
2023/04/22 07:59:50;;;;;;;3.57;2.80;;;16.50;99.90;;;;;;5037515;28;20204;-47
2023/04/22 08:02:16;;;;;;;5.13;3.00;;;16.70;99.90;;;;;;5036322;28;20622;-46
2023/04/22 08:04:41;;;;;;;4.40;3.10;;;16.90;99.90;;;;;;5036370;28;20200;-46
2023/04/22 08:07:07;;;;;;;5.07;2.70;;;17.00;99.90;;;;;;5018334;28;20260;-47
2023/04/22 08:09:33;;;;;;;4.47;3.00;;;17.10;99.90;;;;;;5036781;28;20236;-48
2023/04/22 08:11:58;;;;;;;3.17;2.63;;;17.20;99.90;;;;;;5035868;28;20200;-48
2023/04/22 08:14:24;;;;;;;4.53;2.77;;;17.30;99.90;;;;;;5035937;28;20188;-48
2023/04/22 08:16:53;;;;;;;4.20;2.93;;;17.30;99.90;;;;;;5035873;28;20243;-47
2023/04/22 08:19:19;;;;;;;3.13;2.60;;;17.30;99.90;;;;;;5036161;28;20185;-49
2023/04/22 08:21:45;;;;;;;3.70;2.70;;;17.30;99.90;;;;;;5036073;28;20212;-47
2023/04/22 08:24:11;;;;;;;4.43;2.53;;;17.30;99.90;;;;;;5034908;28;20169;-48
2023/04/22 08:26:38;;;;;;;2.40;2.20;;;17.50;99.90;;;;;;5035733;28;20239;-47
2023/04/22 08:29:04;;;;;;;2.80;2.30;;;17.60;99.90;;;;;;5035731;28;20173;-49
2023/04/22 08:31:30;;;;;;;2.50;2.30;;;17.70;99.90;;;;;;5036104;28;20180;-48
2023/04/22 08:33:56;;;;;;;3.60;2.40;;;17.90;99.90;;;;;;5035853;28;20189;-50
2023/04/22 08:36:24;;;;;;;3.13;2.50;;;18.00;99.90;;;;;;5035525;28;20603;-48
2023/04/22 08:38:50;;;;;;;3.77;2.37;;;18.10;99.90;;;;;;5035790;28;20181;-46
2023/04/22 08:41:18;;;;;;;2.30;2.10;;;18.20;99.90;;;;;;5017608;28;20183;-47
2023/04/22 08:43:44;;;;;;;2.87;2.33;;;18.40;99.90;;;;;;5035655;28;20267;-49
2023/04/22 08:46:10;;;;;;;3.23;2.37;;;18.50;99.90;;;;;;5035613;28;20185;-49
2023/04/22 08:48:36;;;;;;;3.40;2.37;;;18.60;99.90;;;;;;5035410;28;20196;-48
2023/04/22 08:51:02;;;;;;;3.20;2.20;;;18.80;99.90;;;;;;5035282;28;20698;-49
2023/04/22 08:53:28;;;;;;;2.20;2.00;;;18.80;99.90;;;;;;5035161;28;20603;-48
2023/04/22 08:55:55;;;;;;;3.33;2.20;;;18.80;99.90;;;;;;5035433;28;20177;-48
2023/04/22 08:58:21;;;;;;;5.03;2.40;;;18.90;99.90;;;;;;5035143;28;20208;-48
2023/04/22 09:00:47;;;;;;;4.17;2.20;;;18.90;99.90;;;;;;5017557;28;20626;-48
2023/04/22 09:03:15;;;;;;;2.70;1.87;;;19.10;99.90;;;;;;5034981;28;20227;-48
2023/04/22 09:05:41;;;;;;;4.10;2.27;;;19.20;99.90;;;;;;5035022;28;20177;-48
2023/04/22 09:08:08;;;;;;;7.40;2.67;;;19.40;99.90;;;;;;5035236;28;20315;-47
2023/04/22 09:10:37;;;;;;;2.17;1.83;;;19.60;99.90;;;;;;5035229;28;20263;-49
2023/04/22 09:13:05;;;;;;;2.30;1.90;;;19.70;99.90;;;;;;5035102;28;20208;-48
2023/04/22 09:15:31;;;;;;;3.53;2.27;;;19.80;99.90;;;;;;5035085;28;20176;-50
2023/04/22 09:17:57;;;;;;;3.53;2.00;;;19.90;99.90;;;;;;5034912;28;20212;-49
2023/04/22 09:20:28;;;;;;;3.17;1.90;;;20.10;99.90;;;;;;5016959;28;20181;-48
2023/04/22 09:22:54;;;;;;;2.30;2.10;;;20.40;99.90;;;;;;5034654;28;20279;-48
2023/04/22 09:25:26;;;;;;;3.73;1.80;;;20.60;99.90;;;;;;5034916;28;20655;-49
2023/04/22 09:27:53;;;;;;;1.53;1.43;;;20.80;99.90;;;;;;5034542;28;20165;-48
2023/04/22 09:30:39;;;;;;;3.53;1.73;;;20.80;99.90;;;;;;5034455;28;20176;-49
2023/04/22 09:33:06;;;;;;;2.90;2.00;;;21.10;99.90;;;;;;5033919;28;20291;-49
2023/04/22 09:35:36;;;;;;;3.77;1.70;;;21.30;99.90;;;;;;5034280;28;20253;-48
2023/04/22 09:38:05;;;;;;;2.03;1.80;;;21.40;99.90;;;;;;5034571;28;20283;-50
2023/04/22 09:40:31;;;;;;;7.20;2.13;;;21.50;99.90;;;;;;5034559;28;20505;-48
2023/04/22 09:43:02;;;;;;;2.90;1.90;;;21.60;99.90;;;;;;5034489;28;20215;-49
2023/04/22 09:45:34;;;;;;;2.97;1.83;;;21.70;99.90;;;;;;5034549;28;20260;-48
2023/04/22 09:48:08;;;;;;;3.43;1.80;;;21.90;99.90;;;;;;5034166;28;20212;-50
2023/04/22 09:50:35;;;;;;;5.20;1.80;;;22.00;99.90;;;;;;5034223;28;20216;-48
2023/04/22 09:53:04;;;;;;;4.20;1.97;;;22.00;99.90;;;;;;5034192;28;20315;-49
2023/04/22 09:55:33;;;;;;;2.30;1.83;;;22.10;99.90;;;;;;5034312;28;20176;-49
2023/04/22 09:58:07;;;;;;;3.03;2.03;;;22.30;99.90;;;;;;5034177;28;20219;-49
2023/04/22 10:00:38;;;;;;;3.20;1.93;;;22.30;99.90;;;;;;5034257;28;20223;-49
2023/04/22 10:03:05;;;;;;;2.80;1.53;;;22.50;99.90;;;;;;5034184;28;20201;-48
2023/04/22 10:05:36;;;;;;;3.47;1.80;;;22.60;99.90;;;;;;5033895;28;20169;-49
2023/04/22 10:08:06;;;;;;;3.37;1.53;;;22.60;99.90;;;;;;5034132;28;20207;-48
2023/04/22 10:10:32;;;;;;;5.07;2.33;;;22.60;99.90;;;;;;5034121;28;20166;-48
2023/04/22 10:12:59;;;;;;;4.97;1.83;;;22.70;99.90;;;;;;5033666;28;20746;-49
2023/04/22 10:15:29;;;;;;;4.43;1.83;;;22.70;99.90;;;;;;5033958;28;20233;-48
2023/04/22 10:17:55;;;;;;;3.20;2.00;;;22.80;99.90;;;;;;5034291;28;20258;-50
2023/04/22 10:20:22;;;;;;;3.90;1.93;;;22.90;99.90;;;;;;5033804;28;20170;-49
2023/04/22 10:22:53;;;;;;;4.63;2.10;;;23.00;99.90;;;;;;5033514;28;20197;-49
2023/04/22 10:25:24;;;;;;;6.67;2.30;;;23.20;99.90;;;;;;5033838;28;20176;-49
2023/04/22 10:28:00;;;;;;;3.63;1.80;;;23.30;99.90;;;;;;5033536;28;20161;-48
2023/04/22 10:30:27;;;;;;;2.93;1.90;;;23.50;99.90;;;;;;5033736;28;20173;-48
2023/04/22 10:32:53;;;;;;;3.73;1.83;;;23.50;99.90;;;;;;5033411;28;20681;-49
2023/04/22 10:35:26;;;;;;;2.90;1.87;;;23.50;99.90;;;;;;5033752;28;20188;-49
2023/04/22 10:37:52;;;;;;;2.53;1.87;;;23.70;99.90;;;;;;5033672;28;20192;-49
2023/04/22 10:40:18;;;;;;;2.63;1.87;;;23.80;99.90;;;;;;5033642;28;20247;-48
2023/04/22 10:42:50;;;;;;;2.70;2.00;;;23.80;99.90;;;;;;5033414;28;20199;-49
2023/04/22 10:45:15;;;;;;;3.60;1.80;;;23.80;99.90;;;;;;5033480;28;20173;-50
2023/04/22 10:47:42;;;;;;;2.40;1.90;;;23.80;99.90;;;;;;5032778;28;20255;-48
2023/04/22 10:50:27;;;;;;;3.67;1.90;;;23.90;99.90;;;;;;5033592;28;20646;-49
2023/04/22 10:53:35;;;;;;;5.07;2.20;;;23.90;99.90;;;;;;5033492;28;20649;-48
2023/04/22 10:56:02;;;;;;;2.90;1.90;;;23.90;99.90;;;;;;5033562;28;20268;-50
2023/04/22 10:58:27;;;;;;;2.63;2.10;;;23.80;99.90;;;;;;5033202;28;20183;-48
2023/04/22 11:00:58;;;;;;;3.00;1.80;;;23.50;99.90;;;;;;5033465;28;20667;-49
2023/04/22 11:03:28;;;;;;;4.93;2.30;;;23.40;99.90;;;;;;5033149;28;20603;-49
2023/04/22 11:06:26;;;;;;;3.10;1.70;;;23.40;99.90;;;;;;5033417;28;20169;-48
2023/04/22 11:09:08;;;;;;;2.70;1.70;;;23.50;99.90;;;;;;5017717;28;20615;-49
2023/04/22 11:11:33;;;;;;;3.23;1.90;;;23.50;99.90;;;;;;5033059;28;20890;-49
2023/04/22 11:13:59;;;;;;;3.03;1.90;;;23.60;99.90;;;;;;5033164;28;20181;-48
2023/04/22 11:16:25;;;;;;;4.93;2.10;;;23.80;99.90;;;;;;5032999;28;20197;-48
2023/04/22 11:18:51;;;;;;;1.90;1.63;;;24.00;99.90;;;;;;5032977;28;20177;-47
2023/04/22 11:21:18;;;;;;;3.93;2.07;;;24.10;99.90;;;;;;5033267;28;20173;-49
2023/04/22 11:23:55;;;;;;;5.60;2.07;;;24.20;99.90;;;;;;5032961;28;20165;-48
2023/04/22 11:26:33;;;;;;;1.90;1.80;;;24.30;99.90;;;;;;5033230;28;20161;-49
2023/04/22 11:28:59;;;;;;;2.70;1.87;;;24.30;99.90;;;;;;5033224;28;20160;-48
2023/04/22 11:31:25;;;;;;;4.90;2.37;;;24.30;99.90;;;;;;5033072;28;20189;-48
2023/04/22 11:33:50;;;;;;;3.07;2.30;;;24.40;99.90;;;;;;5032899;28;20641;-48
2023/04/22 11:36:18;;;;;;;4.00;2.20;;;24.50;99.90;;;;;;5033087;28;20185;-48
2023/04/22 11:38:54;;;;;;;4.67;2.60;;;24.60;99.90;;;;;;5032844;28;20673;-50
2023/04/22 11:41:22;;;;;;;5.10;2.23;;;24.70;99.90;;;;;;5032813;28;20641;-50
2023/04/22 11:43:47;;;;;;;4.37;2.20;;;24.60;99.90;;;;;;5033055;28;20267;-49
2023/04/22 11:46:13;;;;;;;2.90;2.30;;;24.40;99.90;;;;;;5033068;28;20204;-47
2023/04/22 11:48:38;;;;;;;3.30;2.37;;;24.30;99.90;;;;;;5032712;28;20675;-48
2023/04/22 11:51:10;;;;;;;4.60;2.60;;;24.20;99.90;;;;;;5032719;28;20588;-50
2023/04/22 11:53:37;;;;;;;4.67;2.30;;;24.10;99.90;;;;;;5032903;28;20285;-49
2023/04/22 11:56:03;;;;;;;5.57;2.23;;;24.00;99.90;;;;;;5032621;28;20177;-47
2023/04/22 11:58:28;;;;;;;3.80;2.00;;;23.80;99.90;;;;;;5033785;28;20688;-49
2023/04/22 12:00:57;;;;;;;4.17;2.00;;;23.60;99.90;;;;;;5036532;28;20264;-49
2023/04/22 12:03:25;;;;;;;3.77;2.30;;;23.50;99.90;;;;;;5036133;28;20211;-49
2023/04/22 12:05:50;;;;;;;4.87;2.10;;;23.30;99.90;;;;;;5036148;28;20264;-49
2023/04/22 12:08:20;;;;;;;4.57;2.10;;;23.10;99.90;;;;;;5036379;28;20275;-49
2023/04/22 12:10:47;;;;;;;3.47;2.43;;;23.10;99.90;;;;;;5036395;28;20187;-49
2023/04/22 12:13:24;;;;;;;3.83;2.20;;;23.00;99.90;;;;;;5035952;28;20200;-49
2023/04/22 12:16:00;;;;;;;3.00;1.90;;;23.00;99.90;;;;;;5036291;28;20627;-50
2023/04/22 12:18:36;;;;;;;3.73;1.93;;;22.90;99.90;;;;;;5036142;28;20669;-48
2023/04/22 12:21:09;;;;;;;4.20;1.93;;;22.90;99.90;;;;;;5036277;28;20176;-46
2023/04/22 12:23:45;;;;;;;3.03;1.73;;;22.80;99.90;;;;;;5036069;28;20312;-46
2023/04/22 12:26:11;;;;;;;3.30;1.97;;;22.70;99.90;;;;;;5036084;28;20180;-46
2023/04/22 12:28:38;;;;;;;2.97;1.93;;;22.60;99.90;;;;;;5035915;28;20181;-47
2023/04/22 12:31:04;;;;;;;2.67;1.67;;;22.50;99.90;;;;;;5035721;28;20641;-47
2023/04/22 12:33:30;;;;;;;2.37;1.47;;;22.40;99.90;;;;;;5018143;28;20205;-49
2023/04/22 12:35:56;;;;;;;1.80;1.33;;;22.20;99.90;;;;;;5035934;28;20216;-47
2023/04/22 12:38:21;;;;;;;4.00;1.47;;;22.00;99.90;;;;;;5036088;28;20712;-47
2023/04/22 12:40:47;;;;;;;4.03;1.50;;;21.70;99.90;;;;;;5035833;28;20227;-47
2023/04/22 12:43:13;;;;;;;3.00;1.40;;;21.50;99.90;;;;;;5035377;28;20200;-47
2023/04/22 12:45:39;;;;;;;2.23;1.60;;;21.20;99.90;;;;;;5035383;28;20181;-47
2023/04/22 12:48:04;;;;;;;2.53;1.63;;;20.90;99.90;;;;;;5035431;28;20208;-47